sensor_id;sensor_type;location;lat;lon;timestamp;temperature;humidity
1011;DHT22;494;48.744;10.106;2024-02-26T00:02:12;6.20;1.00
1011;DHT22;494;48.744;10.106;2024-02-26T00:04:41;6.40;1.00
1011;DHT22;494;48.744;10.106;2024-02-26T00:07:12;6.40;1.00
1011;DHT22;494;48.744;10.106;2024-02-26T00:09:42;6.40;1.00
1011;DHT22;494;48.744;10.106;2024-02-26T00:12:14;6.40;1.00
1011;DHT22;494;48.744;10.106;2024-02-26T00:14:58;6.50;1.00
1011;DHT22;494;48.744;10.106;2024-02-26T00:17:43;6.50;1.00
1011;DHT22;494;48.744;10.106;2024-02-26T00:20:16;6.60;1.00
1011;DHT22;494;48.744;10.106;2024-02-26T00:22:48;6.50;1.00
1011;DHT22;494;48.744;10.106;2024-02-26T00:25:18;6.60;1.00
1011;DHT22;494;48.744;10.106;2024-02-26T00:28:05;6.40;1.00
1011;DHT22;494;48.744;10.106;2024-02-26T00:30:35;6.70;1.00
1011;DHT22;494;48.744;10.106;2024-02-26T00:33:11;6.70;1.00
1011;DHT22;494;48.744;10.106;2024-02-26T00:35:44;6.70;1.00
1011;DHT22;494;48.744;10.106;2024-02-26T00:38:22;6.50;1.00
1011;DHT22;494;48.744;10.106;2024-02-26T00:40:53;6.70;1.00
1011;DHT22;494;48.744;10.106;2024-02-26T00:43:22;6.70;1.00
1011;DHT22;494;48.744;10.106;2024-02-26T00:45:55;6.60;1.00
1011;DHT22;494;48.744;10.106;2024-02-26T00:48:41;6.60;1.00
1011;DHT22;494;48.744;10.106;2024-02-26T00:51:16;6.50;1.00
1011;DHT22;494;48.744;10.106;2024-02-26T00:53:49;6.60;1.00
1011;DHT22;494;48.744;10.106;2024-02-26T00:56:19;6.70;1.00
1011;DHT22;494;48.744;10.106;2024-02-26T00:58:50;6.70;1.00
1011;DHT22;494;48.744;10.106;2024-02-26T01:01:26;6.70;1.00
1011;DHT22;494;48.744;10.106;2024-02-26T01:04:00;6.70;1.00
1011;DHT22;494;48.744;10.106;2024-02-26T01:06:30;6.80;1.00
1011;DHT22;494;48.744;10.106;2024-02-26T01:09:01;6.70;1.00
1011;DHT22;494;48.744;10.106;2024-02-26T01:11:31;6.60;1.00
1011;DHT22;494;48.744;10.106;2024-02-26T01:14:01;6.70;1.00
1011;DHT22;494;48.744;10.106;2024-02-26T01:16:31;6.70;1.00
1011;DHT22;494;48.744;10.106;2024-02-26T01:19:03;6.80;1.00
1011;DHT22;494;48.744;10.106;2024-02-26T01:21:32;6.80;1.00
1011;DHT22;494;48.744;10.106;2024-02-26T01:24:01;6.80;1.00
1011;DHT22;494;48.744;10.106;2024-02-26T01:26:32;6.80;1.00
1011;DHT22;494;48.744;10.106;2024-02-26T01:29:02;6.80;1.00
1011;DHT22;494;48.744;10.106;2024-02-26T01:31:33;6.80;1.00
1011;DHT22;494;48.744;10.106;2024-02-26T01:34:06;6.80;1.00
1011;DHT22;494;48.744;10.106;2024-02-26T01:36:36;6.80;1.00
1011;DHT22;494;48.744;10.106;2024-02-26T01:39:06;6.80;1.00
1011;DHT22;494;48.744;10.106;2024-02-26T01:41:39;6.70;1.00
1011;DHT22;494;48.744;10.106;2024-02-26T01:44:13;6.70;1.00
1011;DHT22;494;48.744;10.106;2024-02-26T01:46:42;6.70;1.00
1011;DHT22;494;48.744;10.106;2024-02-26T01:49:15;6.70;1.00
1011;DHT22;494;48.744;10.106;2024-02-26T01:51:52;6.70;1.00
1011;DHT22;494;48.744;10.106;2024-02-26T01:54:22;6.70;1.00
1011;DHT22;494;48.744;10.106;2024-02-26T01:57:11;6.70;1.00
1011;DHT22;494;48.744;10.106;2024-02-26T01:59:43;6.70;1.00
1011;DHT22;494;48.744;10.106;2024-02-26T02:02:13;6.60;1.00
1011;DHT22;494;48.744;10.106;2024-02-26T02:04:48;6.50;1.00
1011;DHT22;494;48.744;10.106;2024-02-26T02:07:20;6.40;1.00
1011;DHT22;494;48.744;10.106;2024-02-26T02:09:51;6.50;1.00
1011;DHT22;494;48.744;10.106;2024-02-26T02:12:22;6.20;1.00
1011;DHT22;494;48.744;10.106;2024-02-26T02:14:51;6.50;1.00
1011;DHT22;494;48.744;10.106;2024-02-26T02:17:25;6.50;1.00
1011;DHT22;494;48.744;10.106;2024-02-26T02:19:57;6.50;1.00
1011;DHT22;494;48.744;10.106;2024-02-26T02:22:31;6.60;1.00
1011;DHT22;494;48.744;10.106;2024-02-26T02:25:13;6.70;1.00
1011;DHT22;494;48.744;10.106;2024-02-26T02:27:49;6.70;1.00
1011;DHT22;494;48.744;10.106;2024-02-26T02:30:37;6.70;1.00
1011;DHT22;494;48.744;10.106;2024-02-26T02:33:16;6.70;1.00
1011;DHT22;494;48.744;10.106;2024-02-26T02:35:48;6.70;1.00
1011;DHT22;494;48.744;10.106;2024-02-26T02:38:27;6.70;1.00
1011;DHT22;494;48.744;10.106;2024-02-26T02:40:59;6.70;1.00
1011;DHT22;494;48.744;10.106;2024-02-26T02:44:19;6.80;1.00
1011;DHT22;494;48.744;10.106;2024-02-26T02:47:18;6.80;1.00
1011;DHT22;494;48.744;10.106;2024-02-26T02:50:10;6.80;1.00
1011;DHT22;494;48.744;10.106;2024-02-26T02:52:55;6.90;1.00
1011;DHT22;494;48.744;10.106;2024-02-26T02:55:58;7.00;1.00
1011;DHT22;494;48.744;10.106;2024-02-26T02:58:40;7.00;1.00
1011;DHT22;494;48.744;10.106;2024-02-26T03:01:17;7.00;1.00
1011;DHT22;494;48.744;10.106;2024-02-26T03:03:47;7.00;1.00
1011;DHT22;494;48.744;10.106;2024-02-26T03:06:36;7.10;1.00
1011;DHT22;494;48.744;10.106;2024-02-26T03:09:12;7.00;1.00
1011;DHT22;494;48.744;10.106;2024-02-26T03:11:44;7.00;1.00
1011;DHT22;494;48.744;10.106;2024-02-26T03:14:16;6.90;1.00
1011;DHT22;494;48.744;10.106;2024-02-26T03:16:53;7.00;1.00
1011;DHT22;494;48.744;10.106;2024-02-26T03:19:44;7.00;1.00
1011;DHT22;494;48.744;10.106;2024-02-26T03:22:27;7.00;1.00
1011;DHT22;494;48.744;10.106;2024-02-26T03:25:11;7.10;1.00
1011;DHT22;494;48.744;10.106;2024-02-26T03:27:43;7.10;1.00
1011;DHT22;494;48.744;10.106;2024-02-26T03:30:16;7.10;1.00
1011;DHT22;494;48.744;10.106;2024-02-26T03:32:48;7.00;1.00
1011;DHT22;494;48.744;10.106;2024-02-26T03:35:18;7.00;1.00
1011;DHT22;494;48.744;10.106;2024-02-26T03:37:48;7.00;1.00
1011;DHT22;494;48.744;10.106;2024-02-26T03:40:22;7.00;1.00
1011;DHT22;494;48.744;10.106;2024-02-26T03:42:58;6.90;1.00
1011;DHT22;494;48.744;10.106;2024-02-26T03:45:46;6.90;1.00
1011;DHT22;494;48.744;10.106;2024-02-26T03:48:17;6.80;1.00
1011;DHT22;494;48.744;10.106;2024-02-26T03:51:04;6.70;1.00
1011;DHT22;494;48.744;10.106;2024-02-26T03:53:36;6.70;1.00
1011;DHT22;494;48.744;10.106;2024-02-26T03:56:11;6.90;1.00
1011;DHT22;494;48.744;10.106;2024-02-26T03:58:47;6.90;1.00
1011;DHT22;494;48.744;10.106;2024-02-26T04:01:20;6.90;1.00
1011;DHT22;494;48.744;10.106;2024-02-26T04:03:52;7.00;1.00
1011;DHT22;494;48.744;10.106;2024-02-26T04:06:39;7.00;1.00
1011;DHT22;494;48.744;10.106;2024-02-26T04:09:17;7.00;1.00
1011;DHT22;494;48.744;10.106;2024-02-26T04:11:48;6.90;1.00
1011;DHT22;494;48.744;10.106;2024-02-26T04:14:22;6.80;1.00
1011;DHT22;494;48.744;10.106;2024-02-26T04:16:55;6.70;1.00
1011;DHT22;494;48.744;10.106;2024-02-26T04:19:40;6.70;1.00
1011;DHT22;494;48.744;10.106;2024-02-26T04:22:20;6.80;1.00
1011;DHT22;494;48.744;10.106;2024-02-26T04:25:06;6.90;1.00
1011;DHT22;494;48.744;10.106;2024-02-26T04:27:36;6.90;1.00
1011;DHT22;494;48.744;10.106;2024-02-26T04:30:23;7.00;1.00
1011;DHT22;494;48.744;10.106;2024-02-26T04:32:56;6.80;1.00
1011;DHT22;494;48.744;10.106;2024-02-26T04:35:41;6.70;1.00
1011;DHT22;494;48.744;10.106;2024-02-26T04:38:20;6.80;1.00
1011;DHT22;494;48.744;10.106;2024-02-26T04:40:58;6.90;1.00
1011;DHT22;494;48.744;10.106;2024-02-26T04:44:10;6.90;1.00
1011;DHT22;494;48.744;10.106;2024-02-26T04:46:52;6.90;1.00
1011;DHT22;494;48.744;10.106;2024-02-26T04:49:33;6.90;1.00
1011;DHT22;494;48.744;10.106;2024-02-26T04:52:11;6.60;1.00
1011;DHT22;494;48.744;10.106;2024-02-26T04:54:49;6.60;1.00
1011;DHT22;494;48.744;10.106;2024-02-26T04:57:28;6.60;1.00
1011;DHT22;494;48.744;10.106;2024-02-26T05:00:07;6.70;1.00
1011;DHT22;494;48.744;10.106;2024-02-26T05:02:52;6.80;1.00
1011;DHT22;494;48.744;10.106;2024-02-26T05:05:36;6.80;1.00
1011;DHT22;494;48.744;10.106;2024-02-26T05:08:16;6.80;1.00
1011;DHT22;494;48.744;10.106;2024-02-26T05:10:46;6.90;1.00
1011;DHT22;494;48.744;10.106;2024-02-26T05:13:17;7.00;1.00
1011;DHT22;494;48.744;10.106;2024-02-26T05:15:49;7.00;1.00
1011;DHT22;494;48.744;10.106;2024-02-26T05:18:24;6.90;1.00
1011;DHT22;494;48.744;10.106;2024-02-26T05:20:53;7.00;1.00
1011;DHT22;494;48.744;10.106;2024-02-26T05:23:25;7.00;1.00
1011;DHT22;494;48.744;10.106;2024-02-26T05:25:57;7.00;1.00
1011;DHT22;494;48.744;10.106;2024-02-26T05:28:29;7.00;1.00
1011;DHT22;494;48.744;10.106;2024-02-26T05:31:05;7.10;1.00
1011;DHT22;494;48.744;10.106;2024-02-26T05:33:37;7.20;1.00
1011;DHT22;494;48.744;10.106;2024-02-26T05:36:10;7.10;1.00
1011;DHT22;494;48.744;10.106;2024-02-26T05:38:59;7.10;1.00
1011;DHT22;494;48.744;10.106;2024-02-26T05:41:31;7.30;1.00
1011;DHT22;494;48.744;10.106;2024-02-26T05:44:08;7.40;1.00
1011;DHT22;494;48.744;10.106;2024-02-26T05:46:42;7.40;1.00
1011;DHT22;494;48.744;10.106;2024-02-26T05:49:36;7.50;1.00
1011;DHT22;494;48.744;10.106;2024-02-26T05:52:08;7.60;1.00
1011;DHT22;494;48.744;10.106;2024-02-26T05:54:38;7.50;1.00
1011;DHT22;494;48.744;10.106;2024-02-26T05:57:18;7.50;1.00
1011;DHT22;494;48.744;10.106;2024-02-26T05:59:48;7.30;1.00
1011;DHT22;494;48.744;10.106;2024-02-26T06:02:24;7.50;1.00
1011;DHT22;494;48.744;10.106;2024-02-26T06:40:55;7.50;1.00
1011;DHT22;494;48.744;10.106;2024-02-26T06:43:36;7.60;1.00
1011;DHT22;494;48.744;10.106;2024-02-26T06:46:30;7.60;1.00
1011;DHT22;494;48.744;10.106;2024-02-26T06:49:19;7.60;1.00
1011;DHT22;494;48.744;10.106;2024-02-26T08:42:00;10.60;1.00
1011;DHT22;494;48.744;10.106;2024-02-26T08:44:54;10.70;1.00
1011;DHT22;494;48.744;10.106;2024-02-26T08:47:23;10.90;1.00
1011;DHT22;494;48.744;10.106;2024-02-26T08:49:52;11.00;1.00
1011;DHT22;494;48.744;10.106;2024-02-26T08:52:21;11.00;1.00
1011;DHT22;494;48.744;10.106;2024-02-26T08:54:50;11.00;1.00
1011;DHT22;494;48.744;10.106;2024-02-26T08:57:20;11.10;1.00
1011;DHT22;494;48.744;10.106;2024-02-26T08:59:48;11.30;1.00
1011;DHT22;494;48.744;10.106;2024-02-26T09:02:18;11.30;1.00
1011;DHT22;494;48.744;10.106;2024-02-26T09:05:00;11.30;1.00
1011;DHT22;494;48.744;10.106;2024-02-26T09:07:29;11.40;1.00
1011;DHT22;494;48.744;10.106;2024-02-26T09:09:58;11.50;1.00
1011;DHT22;494;48.744;10.106;2024-02-26T09:12:53;11.60;1.00
1011;DHT22;494;48.744;10.106;2024-02-26T09:15:22;11.60;1.00
1011;DHT22;494;48.744;10.106;2024-02-26T09:17:51;11.70;1.00
1011;DHT22;494;48.744;10.106;2024-02-26T09:20:20;11.70;1.00
1011;DHT22;494;48.744;10.106;2024-02-26T09:22:51;11.80;1.00
1011;DHT22;494;48.744;10.106;2024-02-26T09:25:20;11.90;1.00
1011;DHT22;494;48.744;10.106;2024-02-26T09:27:49;12.00;1.00
1011;DHT22;494;48.744;10.106;2024-02-26T09:30:19;12.10;1.00
1011;DHT22;494;48.744;10.106;2024-02-26T09:32:49;12.30;1.00
1011;DHT22;494;48.744;10.106;2024-02-26T09:35:17;12.40;1.00
1011;DHT22;494;48.744;10.106;2024-02-26T09:37:46;12.40;1.00
1011;DHT22;494;48.744;10.106;2024-02-26T09:40:16;12.50;1.00
1011;DHT22;494;48.744;10.106;2024-02-26T09:42:46;12.60;1.00
1011;DHT22;494;48.744;10.106;2024-02-26T09:45:19;12.60;1.00
1011;DHT22;494;48.744;10.106;2024-02-26T09:47:50;12.70;1.00
1011;DHT22;494;48.744;10.106;2024-02-26T09:50:22;12.70;1.00
1011;DHT22;494;48.744;10.106;2024-02-26T09:52:51;12.90;1.00
1011;DHT22;494;48.744;10.106;2024-02-26T09:55:20;13.00;1.00
1011;DHT22;494;48.744;10.106;2024-02-26T09:57:51;13.00;1.00
1011;DHT22;494;48.744;10.106;2024-02-26T10:00:22;13.20;1.00
1011;DHT22;494;48.744;10.106;2024-02-26T10:02:57;13.30;1.00
1011;DHT22;494;48.744;10.106;2024-02-26T10:05:27;13.40;1.00
1011;DHT22;494;48.744;10.106;2024-02-26T10:07:58;13.50;1.00
1011;DHT22;494;48.744;10.106;2024-02-26T10:10:29;13.60;1.00
1011;DHT22;494;48.744;10.106;2024-02-26T10:12:59;13.80;1.00
1011;DHT22;494;48.744;10.106;2024-02-26T10:15:30;14.00;1.00
1011;DHT22;494;48.744;10.106;2024-02-26T10:17:59;14.20;1.00
1011;DHT22;494;48.744;10.106;2024-02-26T10:20:28;14.30;1.00
1011;DHT22;494;48.744;10.106;2024-02-26T10:23:00;14.40;1.00
1011;DHT22;494;48.744;10.106;2024-02-26T10:25:31;14.60;1.00
1011;DHT22;494;48.744;10.106;2024-02-26T10:28:00;14.60;1.00
1011;DHT22;494;48.744;10.106;2024-02-26T10:30:36;14.60;1.00
1011;DHT22;494;48.744;10.106;2024-02-26T10:33:07;14.70;1.00
1011;DHT22;494;48.744;10.106;2024-02-26T10:35:36;14.80;1.00
1011;DHT22;494;48.744;10.106;2024-02-26T10:38:07;15.00;1.00
1011;DHT22;494;48.744;10.106;2024-02-26T10:40:38;15.20;1.00
1011;DHT22;494;48.744;10.106;2024-02-26T10:43:08;15.40;1.00
1011;DHT22;494;48.744;10.106;2024-02-26T10:45:38;15.60;1.00
1011;DHT22;494;48.744;10.106;2024-02-26T10:48:24;15.80;1.00
1011;DHT22;494;48.744;10.106;2024-02-26T10:50:54;16.40;1.00
1011;DHT22;494;48.744;10.106;2024-02-26T10:53:25;16.80;1.00
1011;DHT22;494;48.744;10.106;2024-02-26T10:56:02;16.90;1.00
1011;DHT22;494;48.744;10.106;2024-02-26T10:58:33;17.30;1.00
1011;DHT22;494;48.744;10.106;2024-02-26T11:01:19;17.80;1.00
1011;DHT22;494;48.744;10.106;2024-02-26T11:03:52;18.10;1.00
1011;DHT22;494;48.744;10.106;2024-02-26T11:06:21;18.20;1.00
1011;DHT22;494;48.744;10.106;2024-02-26T11:08:51;18.60;1.00
1011;DHT22;494;48.744;10.106;2024-02-26T11:11:21;19.00;1.00
1011;DHT22;494;48.744;10.106;2024-02-26T11:13:51;19.10;1.00
1011;DHT22;494;48.744;10.106;2024-02-26T11:16:23;18.90;1.00
1011;DHT22;494;48.744;10.106;2024-02-26T11:18:55;18.70;1.00
1011;DHT22;494;48.744;10.106;2024-02-26T11:21:27;18.50;1.00
1011;DHT22;494;48.744;10.106;2024-02-26T11:24:07;18.30;1.00
1011;DHT22;494;48.744;10.106;2024-02-26T11:26:42;17.90;1.00
1011;DHT22;494;48.744;10.106;2024-02-26T11:29:19;17.50;1.00
1011;DHT22;494;48.744;10.106;2024-02-26T11:31:52;17.40;1.00
1011;DHT22;494;48.744;10.106;2024-02-26T11:34:21;17.40;1.00
1011;DHT22;494;48.744;10.106;2024-02-26T11:36:51;17.30;1.00
1011;DHT22;494;48.744;10.106;2024-02-26T11:39:20;17.20;1.00
1011;DHT22;494;48.744;10.106;2024-02-26T11:41:50;17.20;1.00
1011;DHT22;494;48.744;10.106;2024-02-26T11:44:29;17.30;1.00
1011;DHT22;494;48.744;10.106;2024-02-26T11:47:09;17.50;1.00
1011;DHT22;494;48.744;10.106;2024-02-26T11:49:42;17.70;1.00
1011;DHT22;494;48.744;10.106;2024-02-26T11:52:19;17.90;1.00
1011;DHT22;494;48.744;10.106;2024-02-26T11:54:50;18.10;1.00
1011;DHT22;494;48.744;10.106;2024-02-26T11:57:24;18.10;1.00
1011;DHT22;494;48.744;10.106;2024-02-26T11:59:55;18.00;1.00
1011;DHT22;494;48.744;10.106;2024-02-26T12:02:44;18.00;1.00
1011;DHT22;494;48.744;10.106;2024-02-26T12:05:15;17.80;1.00
1011;DHT22;494;48.744;10.106;2024-02-26T12:07:48;17.60;1.00
1011;DHT22;494;48.744;10.106;2024-02-26T12:10:23;17.60;1.00
1011;DHT22;494;48.744;10.106;2024-02-26T12:12:58;17.60;1.00
1011;DHT22;494;48.744;10.106;2024-02-26T12:15:32;17.50;1.00
1011;DHT22;494;48.744;10.106;2024-02-26T12:18:06;17.30;1.00
1011;DHT22;494;48.744;10.106;2024-02-26T12:20:37;17.10;1.00
1011;DHT22;494;48.744;10.106;2024-02-26T12:23:06;17.00;1.00
1011;DHT22;494;48.744;10.106;2024-02-26T12:25:35;16.80;1.00
1011;DHT22;494;48.744;10.106;2024-02-26T12:28:04;16.70;1.00
1011;DHT22;494;48.744;10.106;2024-02-26T12:30:33;16.60;1.00
1011;DHT22;494;48.744;10.106;2024-02-26T12:33:04;16.40;1.00
1011;DHT22;494;48.744;10.106;2024-02-26T12:35:35;16.20;1.00
1011;DHT22;494;48.744;10.106;2024-02-26T12:38:04;16.00;1.00
1011;DHT22;494;48.744;10.106;2024-02-26T12:40:33;15.70;1.00
1011;DHT22;494;48.744;10.106;2024-02-26T12:43:02;15.50;1.00
1011;DHT22;494;48.744;10.106;2024-02-26T12:45:31;15.20;1.00
1011;DHT22;494;48.744;10.106;2024-02-26T12:48:00;15.10;1.00
1011;DHT22;494;48.744;10.106;2024-02-26T12:50:31;15.10;1.00
1011;DHT22;494;48.744;10.106;2024-02-26T12:53:00;15.00;1.00
1011;DHT22;494;48.744;10.106;2024-02-26T12:55:30;14.90;1.00
1011;DHT22;494;48.744;10.106;2024-02-26T12:58:02;14.90;1.00
1011;DHT22;494;48.744;10.106;2024-02-26T13:00:32;14.90;1.00
1011;DHT22;494;48.744;10.106;2024-02-26T13:03:01;14.90;1.00
1011;DHT22;494;48.744;10.106;2024-02-26T13:05:33;14.90;1.00
1011;DHT22;494;48.744;10.106;2024-02-26T13:08:03;15.00;1.00
1011;DHT22;494;48.744;10.106;2024-02-26T13:10:35;14.90;1.00
1011;DHT22;494;48.744;10.106;2024-02-26T13:13:05;15.00;1.00
1011;DHT22;494;48.744;10.106;2024-02-26T13:15:35;15.00;1.00
1011;DHT22;494;48.744;10.106;2024-02-26T13:18:09;14.90;1.00
1011;DHT22;494;48.744;10.106;2024-02-26T13:20:41;14.90;1.00
1011;DHT22;494;48.744;10.106;2024-02-26T13:23:12;14.90;1.00
1011;DHT22;494;48.744;10.106;2024-02-26T13:25:41;14.90;1.00
1011;DHT22;494;48.744;10.106;2024-02-26T13:28:15;14.90;1.00
1011;DHT22;494;48.744;10.106;2024-02-26T13:30:50;14.90;1.00
1011;DHT22;494;48.744;10.106;2024-02-26T13:33:21;14.90;1.00
1011;DHT22;494;48.744;10.106;2024-02-26T13:35:52;14.90;1.00
1011;DHT22;494;48.744;10.106;2024-02-26T13:38:22;15.10;1.00
1011;DHT22;494;48.744;10.106;2024-02-26T13:40:52;15.10;1.00
1011;DHT22;494;48.744;10.106;2024-02-26T13:43:20;15.20;1.00
1011;DHT22;494;48.744;10.106;2024-02-26T13:45:49;15.20;1.00
1011;DHT22;494;48.744;10.106;2024-02-26T13:48:18;15.30;1.00
1011;DHT22;494;48.744;10.106;2024-02-26T13:50:47;15.30;1.00
1011;DHT22;494;48.744;10.106;2024-02-26T13:53:19;15.10;1.00
1011;DHT22;494;48.744;10.106;2024-02-26T13:55:50;15.10;1.00
1011;DHT22;494;48.744;10.106;2024-02-26T13:58:19;15.10;1.00
1011;DHT22;494;48.744;10.106;2024-02-26T14:00:50;15.10;1.00
1011;DHT22;494;48.744;10.106;2024-02-26T14:03:20;15.10;1.00
1011;DHT22;494;48.744;10.106;2024-02-26T14:05:49;15.10;1.00
1011;DHT22;494;48.744;10.106;2024-02-26T14:08:19;15.20;1.00
1011;DHT22;494;48.744;10.106;2024-02-26T14:10:48;15.30;1.00
1011;DHT22;494;48.744;10.106;2024-02-26T14:13:18;15.40;1.00
1011;DHT22;494;48.744;10.106;2024-02-26T14:15:47;15.50;1.00
1011;DHT22;494;48.744;10.106;2024-02-26T14:18:17;15.60;1.00
1011;DHT22;494;48.744;10.106;2024-02-26T14:20:46;15.60;1.00
1011;DHT22;494;48.744;10.106;2024-02-26T14:23:15;15.70;1.00
1011;DHT22;494;48.744;10.106;2024-02-26T14:25:45;15.70;1.00
1011;DHT22;494;48.744;10.106;2024-02-26T14:28:13;15.60;1.00
1011;DHT22;494;48.744;10.106;2024-02-26T14:30:51;15.70;1.00
1011;DHT22;494;48.744;10.106;2024-02-26T14:33:19;15.70;1.00
1011;DHT22;494;48.744;10.106;2024-02-26T14:35:49;15.70;1.00
1011;DHT22;494;48.744;10.106;2024-02-26T14:38:21;15.70;1.00
1011;DHT22;494;48.744;10.106;2024-02-26T14:40:53;15.70;1.00
1011;DHT22;494;48.744;10.106;2024-02-26T14:43:23;15.70;1.00
1011;DHT22;494;48.744;10.106;2024-02-26T14:45:52;15.80;1.00
1011;DHT22;494;48.744;10.106;2024-02-26T14:48:21;15.80;1.00
1011;DHT22;494;48.744;10.106;2024-02-26T14:50:50;15.70;1.00
1011;DHT22;494;48.744;10.106;2024-02-26T14:53:19;15.60;1.00
1011;DHT22;494;48.744;10.106;2024-02-26T14:55:48;15.40;1.00
1011;DHT22;494;48.744;10.106;2024-02-26T14:58:18;15.30;1.00
1011;DHT22;494;48.744;10.106;2024-02-26T15:00:47;15.20;1.00
1011;DHT22;494;48.744;10.106;2024-02-26T15:03:20;15.20;1.00
1011;DHT22;494;48.744;10.106;2024-02-26T15:05:49;15.30;1.00
1011;DHT22;494;48.744;10.106;2024-02-26T15:08:18;15.30;1.00
1011;DHT22;494;48.744;10.106;2024-02-26T15:10:47;15.30;1.00
1011;DHT22;494;48.744;10.106;2024-02-26T15:13:18;15.20;1.00
1011;DHT22;494;48.744;10.106;2024-02-26T15:15:46;15.20;1.00
1011;DHT22;494;48.744;10.106;2024-02-26T15:18:15;15.10;1.00
1011;DHT22;494;48.744;10.106;2024-02-26T15:20:44;15.10;1.00
1011;DHT22;494;48.744;10.106;2024-02-26T15:23:14;15.10;1.00
1011;DHT22;494;48.744;10.106;2024-02-26T15:25:45;15.10;1.00
1011;DHT22;494;48.744;10.106;2024-02-26T15:28:13;15.10;1.00
1011;DHT22;494;48.744;10.106;2024-02-26T15:30:44;14.90;1.00
1011;DHT22;494;48.744;10.106;2024-02-26T15:33:14;14.70;1.00
1011;DHT22;494;48.744;10.106;2024-02-26T15:35:44;14.50;1.00
1011;DHT22;494;48.744;10.106;2024-02-26T15:38:13;14.40;1.00
1011;DHT22;494;48.744;10.106;2024-02-26T15:40:42;14.20;1.00
1011;DHT22;494;48.744;10.106;2024-02-26T15:43:11;14.30;1.00
1011;DHT22;494;48.744;10.106;2024-02-26T15:45:44;14.30;1.00
1011;DHT22;494;48.744;10.106;2024-02-26T15:48:15;14.20;1.00
1011;DHT22;494;48.744;10.106;2024-02-26T15:50:44;14.20;1.00
1011;DHT22;494;48.744;10.106;2024-02-26T15:53:14;14.20;1.00
1011;DHT22;494;48.744;10.106;2024-02-26T15:55:43;14.20;1.00
1011;DHT22;494;48.744;10.106;2024-02-26T15:58:12;14.20;1.00
1011;DHT22;494;48.744;10.106;2024-02-26T16:00:41;14.20;1.00
1011;DHT22;494;48.744;10.106;2024-02-26T16:03:12;14.20;1.00
1011;DHT22;494;48.744;10.106;2024-02-26T16:05:41;14.20;1.00
1011;DHT22;494;48.744;10.106;2024-02-26T16:08:12;14.20;1.00
1011;DHT22;494;48.744;10.106;2024-02-26T16:10:48;14.30;1.00
1011;DHT22;494;48.744;10.106;2024-02-26T16:13:17;14.20;1.00
1011;DHT22;494;48.744;10.106;2024-02-26T16:15:50;14.10;1.00
1011;DHT22;494;48.744;10.106;2024-02-26T16:18:25;14.00;1.00
1011;DHT22;494;48.744;10.106;2024-02-26T16:20:54;14.00;1.00
1011;DHT22;494;48.744;10.106;2024-02-26T16:23:23;13.90;1.00
1011;DHT22;494;48.744;10.106;2024-02-26T16:25:52;13.90;1.00
1011;DHT22;494;48.744;10.106;2024-02-26T16:28:22;13.90;1.00
1011;DHT22;494;48.744;10.106;2024-02-26T16:30:53;13.70;1.00
1011;DHT22;494;48.744;10.106;2024-02-26T16:33:22;13.60;1.00
1011;DHT22;494;48.744;10.106;2024-02-26T16:35:55;13.50;1.00
1011;DHT22;494;48.744;10.106;2024-02-26T16:38:23;13.50;1.00
1011;DHT22;494;48.744;10.106;2024-02-26T16:40:52;13.40;1.00
1011;DHT22;494;48.744;10.106;2024-02-26T16:43:35;13.40;1.00
1011;DHT22;494;48.744;10.106;2024-02-26T16:46:05;13.20;1.00
1011;DHT22;494;48.744;10.106;2024-02-26T16:48:34;13.20;1.00
1011;DHT22;494;48.744;10.106;2024-02-26T16:51:05;13.10;1.00
1011;DHT22;494;48.744;10.106;2024-02-26T16:53:35;13.10;1.00
1011;DHT22;494;48.744;10.106;2024-02-26T16:56:09;13.20;1.00
1011;DHT22;494;48.744;10.106;2024-02-26T16:58:38;13.20;1.00
1011;DHT22;494;48.744;10.106;2024-02-26T17:01:06;13.10;1.00
1011;DHT22;494;48.744;10.106;2024-02-26T17:03:37;13.00;1.00
1011;DHT22;494;48.744;10.106;2024-02-26T17:06:09;13.00;1.00
1011;DHT22;494;48.744;10.106;2024-02-26T17:08:38;13.00;1.00
1011;DHT22;494;48.744;10.106;2024-02-26T17:11:08;12.90;1.00
1011;DHT22;494;48.744;10.106;2024-02-26T17:13:37;12.80;1.00
1011;DHT22;494;48.744;10.106;2024-02-26T17:16:06;12.90;1.00
1011;DHT22;494;48.744;10.106;2024-02-26T17:18:35;12.80;1.00
1011;DHT22;494;48.744;10.106;2024-02-26T17:21:04;12.70;1.00
1011;DHT22;494;48.744;10.106;2024-02-26T17:23:34;12.80;1.00
1011;DHT22;494;48.744;10.106;2024-02-26T17:26:04;12.70;1.00
1011;DHT22;494;48.744;10.106;2024-02-26T17:28:36;12.70;1.00
1011;DHT22;494;48.744;10.106;2024-02-26T17:31:09;12.80;1.00
1011;DHT22;494;48.744;10.106;2024-02-26T17:33:38;12.80;1.00
1011;DHT22;494;48.744;10.106;2024-02-26T17:36:07;12.70;1.00
1011;DHT22;494;48.744;10.106;2024-02-26T17:38:38;12.50;1.00
1011;DHT22;494;48.744;10.106;2024-02-26T17:41:08;12.40;1.00
1011;DHT22;494;48.744;10.106;2024-02-26T17:43:37;12.30;1.00
1011;DHT22;494;48.744;10.106;2024-02-26T17:46:06;12.20;1.00
1011;DHT22;494;48.744;10.106;2024-02-26T17:48:35;12.20;1.00
1011;DHT22;494;48.744;10.106;2024-02-26T17:51:04;12.20;1.00
1011;DHT22;494;48.744;10.106;2024-02-26T17:53:34;12.00;1.00
1011;DHT22;494;48.744;10.106;2024-02-26T17:56:07;11.90;1.00
1011;DHT22;494;48.744;10.106;2024-02-26T17:58:38;11.90;1.00
1011;DHT22;494;48.744;10.106;2024-02-26T18:01:09;12.10;1.00
1011;DHT22;494;48.744;10.106;2024-02-26T18:03:38;12.00;1.00
1011;DHT22;494;48.744;10.106;2024-02-26T18:06:07;12.00;1.00
1011;DHT22;494;48.744;10.106;2024-02-26T18:08:35;12.10;1.00
1011;DHT22;494;48.744;10.106;2024-02-26T18:11:07;12.10;1.00
1011;DHT22;494;48.744;10.106;2024-02-26T18:13:37;12.10;1.00
1011;DHT22;494;48.744;10.106;2024-02-26T18:16:09;12.20;1.00
1011;DHT22;494;48.744;10.106;2024-02-26T18:18:38;12.20;1.00
1011;DHT22;494;48.744;10.106;2024-02-26T18:21:06;12.20;1.00
1011;DHT22;494;48.744;10.106;2024-02-26T18:23:36;12.20;1.00
1011;DHT22;494;48.744;10.106;2024-02-26T18:26:06;12.20;1.00
1011;DHT22;494;48.744;10.106;2024-02-26T18:28:36;12.20;1.00
1011;DHT22;494;48.744;10.106;2024-02-26T18:31:05;12.20;1.00
1011;DHT22;494;48.744;10.106;2024-02-26T18:33:36;12.20;1.00
1011;DHT22;494;48.744;10.106;2024-02-26T18:36:07;12.20;1.00
1011;DHT22;494;48.744;10.106;2024-02-26T18:38:36;12.10;1.00
1011;DHT22;494;48.744;10.106;2024-02-26T18:41:07;12.00;1.00
1011;DHT22;494;48.744;10.106;2024-02-26T18:43:36;12.10;1.00
1011;DHT22;494;48.744;10.106;2024-02-26T18:46:06;12.00;1.00
1011;DHT22;494;48.744;10.106;2024-02-26T18:48:35;12.00;1.00
1011;DHT22;494;48.744;10.106;2024-02-26T18:51:04;11.80;1.00
1011;DHT22;494;48.744;10.106;2024-02-26T18:53:33;11.80;1.00
1011;DHT22;494;48.744;10.106;2024-02-26T18:56:02;11.80;1.00
1011;DHT22;494;48.744;10.106;2024-02-26T18:58:33;11.70;1.00
1011;DHT22;494;48.744;10.106;2024-02-26T19:01:10;11.70;1.00
1011;DHT22;494;48.744;10.106;2024-02-26T19:03:40;11.60;1.00
1011;DHT22;494;48.744;10.106;2024-02-26T19:06:09;11.50;1.00
1011;DHT22;494;48.744;10.106;2024-02-26T19:08:40;11.40;1.00
1011;DHT22;494;48.744;10.106;2024-02-26T19:11:09;11.40;1.00
1011;DHT22;494;48.744;10.106;2024-02-26T19:13:40;11.30;1.00
1011;DHT22;494;48.744;10.106;2024-02-26T19:16:09;11.30;1.00
1011;DHT22;494;48.744;10.106;2024-02-26T19:18:40;11.30;1.00
1011;DHT22;494;48.744;10.106;2024-02-26T19:21:08;11.30;1.00
1011;DHT22;494;48.744;10.106;2024-02-26T19:23:39;11.20;1.00
1011;DHT22;494;48.744;10.106;2024-02-26T19:26:08;11.20;1.00
1011;DHT22;494;48.744;10.106;2024-02-26T19:28:37;11.10;1.00